sensor_id;sensor_type;location;lat;lon;timestamp;P1;durP1;ratioP1;P2;durP2;ratioP2
5742;SDS011;2896;53.500;10.020;2023-03-11T00:00:20;24.67;;;17.20;;
5742;SDS011;2896;53.500;10.020;2023-03-11T00:02:51;24.80;;;16.33;;
5742;SDS011;2896;53.500;10.020;2023-03-11T00:05:20;24.83;;;16.07;;
5742;SDS011;2896;53.500;10.020;2023-03-11T00:07:48;27.87;;;17.13;;
5742;SDS011;2896;53.500;10.020;2023-03-11T00:10:16;22.87;;;16.20;;
5742;SDS011;2896;53.500;10.020;2023-03-11T00:12:44;33.07;;;17.90;;
5742;SDS011;2896;53.500;10.020;2023-03-11T00:15:11;24.97;;;16.90;;
5742;SDS011;2896;53.500;10.020;2023-03-11T00:17:38;26.00;;;16.67;;
5742;SDS011;2896;53.500;10.020;2023-03-11T00:20:10;28.10;;;17.03;;
5742;SDS011;2896;53.500;10.020;2023-03-11T00:22:41;31.27;;;17.80;;
5742;SDS011;2896;53.500;10.020;2023-03-11T00:25:08;27.67;;;17.73;;
5742;SDS011;2896;53.500;10.020;2023-03-11T00:27:35;27.57;;;18.30;;
5742;SDS011;2896;53.500;10.020;2023-03-11T00:30:02;31.37;;;19.57;;
5742;SDS011;2896;53.500;10.020;2023-03-11T00:32:29;31.30;;;18.57;;
5742;SDS011;2896;53.500;10.020;2023-03-11T00:34:56;28.17;;;19.10;;
5742;SDS011;2896;53.500;10.020;2023-03-11T00:37:24;31.67;;;18.20;;
5742;SDS011;2896;53.500;10.020;2023-03-11T00:39:51;32.73;;;19.43;;
5742;SDS011;2896;53.500;10.020;2023-03-11T00:42:17;30.50;;;19.00;;
5742;SDS011;2896;53.500;10.020;2023-03-11T00:44:44;30.27;;;19.90;;
5742;SDS011;2896;53.500;10.020;2023-03-11T00:47:11;32.60;;;20.63;;
5742;SDS011;2896;53.500;10.020;2023-03-11T00:49:37;31.03;;;20.47;;
5742;SDS011;2896;53.500;10.020;2023-03-11T00:52:04;36.07;;;19.17;;
5742;SDS011;2896;53.500;10.020;2023-03-11T00:54:32;30.60;;;19.23;;
5742;SDS011;2896;53.500;10.020;2023-03-11T00:56:59;31.10;;;19.70;;
5742;SDS011;2896;53.500;10.020;2023-03-11T00:59:26;34.47;;;19.60;;
5742;SDS011;2896;53.500;10.020;2023-03-11T01:01:52;30.00;;;19.60;;
5742;SDS011;2896;53.500;10.020;2023-03-11T01:04:19;33.00;;;20.77;;
5742;SDS011;2896;53.500;10.020;2023-03-11T01:06:45;32.37;;;20.10;;
5742;SDS011;2896;53.500;10.020;2023-03-11T01:09:12;30.17;;;20.17;;
5742;SDS011;2896;53.500;10.020;2023-03-11T01:11:40;32.43;;;19.50;;
5742;SDS011;2896;53.500;10.020;2023-03-11T01:14:07;31.90;;;19.80;;
5742;SDS011;2896;53.500;10.020;2023-03-11T01:16:34;32.13;;;20.23;;
5742;SDS011;2896;53.500;10.020;2023-03-11T01:19:00;27.40;;;17.73;;
5742;SDS011;2896;53.500;10.020;2023-03-11T01:21:27;30.23;;;19.33;;
5742;SDS011;2896;53.500;10.020;2023-03-11T01:23:53;30.37;;;19.80;;
5742;SDS011;2896;53.500;10.020;2023-03-11T01:26:20;28.93;;;18.90;;
5742;SDS011;2896;53.500;10.020;2023-03-11T01:28:48;27.60;;;17.80;;
5742;SDS011;2896;53.500;10.020;2023-03-11T01:31:14;30.00;;;18.90;;
5742;SDS011;2896;53.500;10.020;2023-03-11T01:33:42;30.47;;;18.43;;
5742;SDS011;2896;53.500;10.020;2023-03-11T01:36:08;29.33;;;18.37;;
5742;SDS011;2896;53.500;10.020;2023-03-11T01:38:35;25.10;;;16.60;;
5742;SDS011;2896;53.500;10.020;2023-03-11T01:41:02;26.57;;;17.67;;
5742;SDS011;2896;53.500;10.020;2023-03-11T01:43:36;28.77;;;18.43;;
5742;SDS011;2896;53.500;10.020;2023-03-11T01:46:09;28.30;;;17.50;;
5742;SDS011;2896;53.500;10.020;2023-03-11T01:48:39;29.37;;;18.53;;
5742;SDS011;2896;53.500;10.020;2023-03-11T01:51:06;28.70;;;18.03;;
5742;SDS011;2896;53.500;10.020;2023-03-11T01:53:33;28.57;;;18.77;;
5742;SDS011;2896;53.500;10.020;2023-03-11T01:56:01;35.90;;;18.37;;
5742;SDS011;2896;53.500;10.020;2023-03-11T01:58:30;24.50;;;16.53;;
5742;SDS011;2896;53.500;10.020;2023-03-11T02:00:59;25.57;;;17.60;;
5742;SDS011;2896;53.500;10.020;2023-03-11T02:03:29;25.77;;;17.67;;
5742;SDS011;2896;53.500;10.020;2023-03-11T02:05:59;29.30;;;18.90;;
5742;SDS011;2896;53.500;10.020;2023-03-11T02:08:27;27.00;;;17.07;;
5742;SDS011;2896;53.500;10.020;2023-03-11T02:10:57;27.60;;;16.87;;
5742;SDS011;2896;53.500;10.020;2023-03-11T02:13:25;28.17;;;16.87;;
5742;SDS011;2896;53.500;10.020;2023-03-11T02:15:52;27.93;;;17.03;;
5742;SDS011;2896;53.500;10.020;2023-03-11T02:18:19;30.83;;;18.27;;
5742;SDS011;2896;53.500;10.020;2023-03-11T02:20:48;27.30;;;15.90;;
5742;SDS011;2896;53.500;10.020;2023-03-11T02:23:20;27.10;;;17.10;;
5742;SDS011;2896;53.500;10.020;2023-03-11T02:25:52;23.50;;;16.83;;
5742;SDS011;2896;53.500;10.020;2023-03-11T02:28:27;24.30;;;17.43;;
5742;SDS011;2896;53.500;10.020;2023-03-11T02:30:57;26.63;;;17.10;;
5742;SDS011;2896;53.500;10.020;2023-03-11T02:33:24;29.30;;;17.93;;
5742;SDS011;2896;53.500;10.020;2023-03-11T02:35:56;27.63;;;17.37;;
5742;SDS011;2896;53.500;10.020;2023-03-11T02:38:22;24.87;;;16.40;;
5742;SDS011;2896;53.500;10.020;2023-03-11T02:40:50;24.07;;;17.30;;
5742;SDS011;2896;53.500;10.020;2023-03-11T02:43:22;32.63;;;17.10;;
5742;SDS011;2896;53.500;10.020;2023-03-11T02:45:52;31.60;;;17.87;;
5742;SDS011;2896;53.500;10.020;2023-03-11T02:48:20;28.60;;;16.00;;
5742;SDS011;2896;53.500;10.020;2023-03-11T02:50:48;29.63;;;15.97;;
5742;SDS011;2896;53.500;10.020;2023-03-11T02:53:15;23.73;;;15.50;;
5742;SDS011;2896;53.500;10.020;2023-03-11T02:55:43;28.20;;;17.63;;
5742;SDS011;2896;53.500;10.020;2023-03-11T02:58:10;22.60;;;16.33;;
5742;SDS011;2896;53.500;10.020;2023-03-11T03:00:36;25.23;;;16.20;;
5742;SDS011;2896;53.500;10.020;2023-03-11T03:03:04;22.43;;;15.60;;
5742;SDS011;2896;53.500;10.020;2023-03-11T03:05:31;24.80;;;16.00;;
5742;SDS011;2896;53.500;10.020;2023-03-11T03:07:57;26.87;;;16.83;;
5742;SDS011;2896;53.500;10.020;2023-03-11T03:10:25;25.50;;;17.20;;
5742;SDS011;2896;53.500;10.020;2023-03-11T03:12:52;26.70;;;15.80;;
5742;SDS011;2896;53.500;10.020;2023-03-11T03:15:18;25.53;;;16.40;;
5742;SDS011;2896;53.500;10.020;2023-03-11T03:17:45;28.03;;;17.37;;
5742;SDS011;2896;53.500;10.020;2023-03-11T03:20:13;24.63;;;15.77;;
5742;SDS011;2896;53.500;10.020;2023-03-11T03:22:40;21.53;;;15.13;;
5742;SDS011;2896;53.500;10.020;2023-03-11T03:25:08;23.90;;;14.77;;
5742;SDS011;2896;53.500;10.020;2023-03-11T03:27:36;27.63;;;15.87;;
5742;SDS011;2896;53.500;10.020;2023-03-11T03:30:02;21.17;;;15.10;;
5742;SDS011;2896;53.500;10.020;2023-03-11T03:32:30;22.40;;;14.13;;
5742;SDS011;2896;53.500;10.020;2023-03-11T03:34:56;25.57;;;14.60;;
5742;SDS011;2896;53.500;10.020;2023-03-11T03:37:25;22.67;;;15.13;;
5742;SDS011;2896;53.500;10.020;2023-03-11T03:39:52;21.00;;;13.90;;
5742;SDS011;2896;53.500;10.020;2023-03-11T03:42:20;22.27;;;14.60;;
5742;SDS011;2896;53.500;10.020;2023-03-11T03:44:49;22.60;;;15.10;;
5742;SDS011;2896;53.500;10.020;2023-03-11T03:47:16;22.57;;;14.70;;
5742;SDS011;2896;53.500;10.020;2023-03-11T03:49:42;21.27;;;14.30;;
5742;SDS011;2896;53.500;10.020;2023-03-11T03:52:09;21.63;;;15.03;;
5742;SDS011;2896;53.500;10.020;2023-03-11T03:54:37;24.63;;;15.53;;
5742;SDS011;2896;53.500;10.020;2023-03-11T03:57:04;22.53;;;14.90;;
5742;SDS011;2896;53.500;10.020;2023-03-11T03:59:31;25.90;;;15.80;;
5742;SDS011;2896;53.500;10.020;2023-03-11T04:01:57;23.10;;;15.80;;
5742;SDS011;2896;53.500;10.020;2023-03-11T04:04:24;26.30;;;15.10;;
5742;SDS011;2896;53.500;10.020;2023-03-11T04:06:51;23.50;;;16.10;;
5742;SDS011;2896;53.500;10.020;2023-03-11T04:09:18;21.23;;;14.83;;
5742;SDS011;2896;53.500;10.020;2023-03-11T04:11:46;25.67;;;15.43;;
5742;SDS011;2896;53.500;10.020;2023-03-11T04:14:13;20.97;;;14.57;;
5742;SDS011;2896;53.500;10.020;2023-03-11T04:16:40;23.30;;;15.63;;
5742;SDS011;2896;53.500;10.020;2023-03-11T04:19:06;24.73;;;13.47;;
5742;SDS011;2896;53.500;10.020;2023-03-11T04:21:34;23.60;;;13.87;;
5742;SDS011;2896;53.500;10.020;2023-03-11T04:24:00;17.17;;;11.83;;
5742;SDS011;2896;53.500;10.020;2023-03-11T04:26:27;19.83;;;14.10;;
5742;SDS011;2896;53.500;10.020;2023-03-11T04:28:56;20.07;;;13.70;;
5742;SDS011;2896;53.500;10.020;2023-03-11T04:31:22;18.70;;;12.60;;
5742;SDS011;2896;53.500;10.020;2023-03-11T04:33:49;17.70;;;11.93;;
5742;SDS011;2896;53.500;10.020;2023-03-11T04:36:16;19.17;;;13.03;;
5742;SDS011;2896;53.500;10.020;2023-03-11T04:38:42;15.07;;;11.37;;
5742;SDS011;2896;53.500;10.020;2023-03-11T04:41:10;18.87;;;13.00;;
5742;SDS011;2896;53.500;10.020;2023-03-11T04:43:37;17.00;;;11.83;;
5742;SDS011;2896;53.500;10.020;2023-03-11T04:46:08;20.97;;;13.30;;
5742;SDS011;2896;53.500;10.020;2023-03-11T04:48:35;21.50;;;13.83;;
5742;SDS011;2896;53.500;10.020;2023-03-11T04:51:03;18.47;;;12.33;;
5742;SDS011;2896;53.500;10.020;2023-03-11T04:53:29;16.20;;;12.13;;
5742;SDS011;2896;53.500;10.020;2023-03-11T04:55:56;14.87;;;11.30;;
5742;SDS011;2896;53.500;10.020;2023-03-11T04:58:23;15.97;;;11.30;;
5742;SDS011;2896;53.500;10.020;2023-03-11T05:00:50;18.30;;;11.87;;
5742;SDS011;2896;53.500;10.020;2023-03-11T05:03:18;17.77;;;11.93;;
5742;SDS011;2896;53.500;10.020;2023-03-11T05:05:45;15.97;;;11.93;;
5742;SDS011;2896;53.500;10.020;2023-03-11T05:08:11;21.27;;;13.00;;
5742;SDS011;2896;53.500;10.020;2023-03-11T05:10:38;19.20;;;11.77;;
5742;SDS011;2896;53.500;10.020;2023-03-11T05:13:05;20.43;;;12.50;;
5742;SDS011;2896;53.500;10.020;2023-03-11T05:15:32;20.70;;;13.13;;
5742;SDS011;2896;53.500;10.020;2023-03-11T05:17:59;18.37;;;12.50;;
5742;SDS011;2896;53.500;10.020;2023-03-11T05:20:27;26.40;;;13.20;;
5742;SDS011;2896;53.500;10.020;2023-03-11T05:22:55;24.60;;;13.03;;
5742;SDS011;2896;53.500;10.020;2023-03-11T05:25:21;23.70;;;13.70;;
5742;SDS011;2896;53.500;10.020;2023-03-11T05:27:48;17.63;;;12.10;;
5742;SDS011;2896;53.500;10.020;2023-03-11T05:30:15;20.40;;;12.80;;
5742;SDS011;2896;53.500;10.020;2023-03-11T05:32:42;23.60;;;14.40;;
5742;SDS011;2896;53.500;10.020;2023-03-11T05:35:08;20.30;;;13.13;;
5742;SDS011;2896;53.500;10.020;2023-03-11T05:37:37;20.80;;;13.27;;
5742;SDS011;2896;53.500;10.020;2023-03-11T05:40:04;26.50;;;13.00;;
5742;SDS011;2896;53.500;10.020;2023-03-11T05:42:32;18.60;;;12.90;;
5742;SDS011;2896;53.500;10.020;2023-03-11T05:44:59;21.00;;;13.20;;
5742;SDS011;2896;53.500;10.020;2023-03-11T05:47:26;20.70;;;12.80;;
5742;SDS011;2896;53.500;10.020;2023-03-11T05:49:52;22.73;;;13.33;;
5742;SDS011;2896;53.500;10.020;2023-03-11T05:52:19;22.60;;;13.87;;
5742;SDS011;2896;53.500;10.020;2023-03-11T05:54:49;19.00;;;11.80;;
5742;SDS011;2896;53.500;10.020;2023-03-11T05:57:16;24.53;;;12.80;;
5742;SDS011;2896;53.500;10.020;2023-03-11T05:59:43;18.17;;;12.30;;
5742;SDS011;2896;53.500;10.020;2023-03-11T06:02:10;21.03;;;12.50;;
5742;SDS011;2896;53.500;10.020;2023-03-11T06:04:36;18.37;;;12.67;;
5742;SDS011;2896;53.500;10.020;2023-03-11T06:07:03;17.80;;;11.47;;
5742;SDS011;2896;53.500;10.020;2023-03-11T06:09:30;19.07;;;12.50;;
5742;SDS011;2896;53.500;10.020;2023-03-11T06:11:58;17.20;;;11.63;;
5742;SDS011;2896;53.500;10.020;2023-03-11T06:14:24;25.90;;;11.10;;
5742;SDS011;2896;53.500;10.020;2023-03-11T06:16:55;18.60;;;11.60;;
5742;SDS011;2896;53.500;10.020;2023-03-11T06:19:22;18.80;;;12.40;;
5742;SDS011;2896;53.500;10.020;2023-03-11T06:21:48;16.53;;;11.87;;
5742;SDS011;2896;53.500;10.020;2023-03-11T06:24:15;23.00;;;12.13;;
5742;SDS011;2896;53.500;10.020;2023-03-11T06:26:42;15.80;;;11.60;;
5742;SDS011;2896;53.500;10.020;2023-03-11T06:29:12;16.90;;;11.50;;
5742;SDS011;2896;53.500;10.020;2023-03-11T06:31:39;17.27;;;11.30;;
5742;SDS011;2896;53.500;10.020;2023-03-11T06:34:07;22.47;;;11.63;;
5742;SDS011;2896;53.500;10.020;2023-03-11T06:36:34;18.13;;;10.63;;
5742;SDS011;2896;53.500;10.020;2023-03-11T06:39:01;20.27;;;11.10;;
5742;SDS011;2896;53.500;10.020;2023-03-11T06:41:28;17.83;;;12.10;;
5742;SDS011;2896;53.500;10.020;2023-03-11T06:43:58;14.67;;;10.37;;
5742;SDS011;2896;53.500;10.020;2023-03-11T06:46:26;18.80;;;10.80;;
5742;SDS011;2896;53.500;10.020;2023-03-11T06:48:53;14.90;;;10.93;;
5742;SDS011;2896;53.500;10.020;2023-03-11T06:51:19;13.03;;;10.90;;
5742;SDS011;2896;53.500;10.020;2023-03-11T06:53:47;15.27;;;9.63;;
5742;SDS011;2896;53.500;10.020;2023-03-11T06:56:15;13.30;;;9.33;;
5742;SDS011;2896;53.500;10.020;2023-03-11T06:58:43;11.43;;;9.50;;
5742;SDS011;2896;53.500;10.020;2023-03-11T07:01:10;10.07;;;8.17;;
5742;SDS011;2896;53.500;10.020;2023-03-11T07:03:40;11.00;;;7.90;;
5742;SDS011;2896;53.500;10.020;2023-03-11T07:06:09;11.13;;;8.80;;
5742;SDS011;2896;53.500;10.020;2023-03-11T07:08:37;10.30;;;7.80;;
5742;SDS011;2896;53.500;10.020;2023-03-11T07:11:05;11.33;;;7.53;;
5742;SDS011;2896;53.500;10.020;2023-03-11T07:13:33;13.00;;;8.40;;
5742;SDS011;2896;53.500;10.020;2023-03-11T07:16:00;13.70;;;7.60;;
5742;SDS011;2896;53.500;10.020;2023-03-11T07:18:28;10.27;;;8.17;;
5742;SDS011;2896;53.500;10.020;2023-03-11T07:20:56;9.17;;;7.50;;
5742;SDS011;2896;53.500;10.020;2023-03-11T07:23:23;11.50;;;7.90;;
5742;SDS011;2896;53.500;10.020;2023-03-11T07:25:49;10.90;;;8.30;;
5742;SDS011;2896;53.500;10.020;2023-03-11T07:28:17;12.20;;;8.17;;
5742;SDS011;2896;53.500;10.020;2023-03-11T07:30:44;9.83;;;7.40;;
5742;SDS011;2896;53.500;10.020;2023-03-11T07:33:12;9.27;;;8.23;;
5742;SDS011;2896;53.500;10.020;2023-03-11T07:35:39;12.70;;;8.67;;
5742;SDS011;2896;53.500;10.020;2023-03-11T07:38:07;10.27;;;8.40;;
5742;SDS011;2896;53.500;10.020;2023-03-11T07:40:34;12.17;;;7.90;;
5742;SDS011;2896;53.500;10.020;2023-03-11T07:43:00;17.53;;;8.07;;
5742;SDS011;2896;53.500;10.020;2023-03-11T07:45:27;11.43;;;7.57;;
5742;SDS011;2896;53.500;10.020;2023-03-11T07:47:54;9.70;;;7.70;;
5742;SDS011;2896;53.500;10.020;2023-03-11T07:50:20;12.20;;;7.80;;
5742;SDS011;2896;53.500;10.020;2023-03-11T07:52:47;11.90;;;6.87;;
5742;SDS011;2896;53.500;10.020;2023-03-11T07:55:15;7.60;;;6.77;;
5742;SDS011;2896;53.500;10.020;2023-03-11T07:57:42;7.40;;;6.50;;
5742;SDS011;2896;53.500;10.020;2023-03-11T08:00:09;7.80;;;6.83;;
5742;SDS011;2896;53.500;10.020;2023-03-11T08:02:36;7.70;;;6.90;;
5742;SDS011;2896;53.500;10.020;2023-03-11T08:05:04;12.63;;;7.50;;
5742;SDS011;2896;53.500;10.020;2023-03-11T08:07:31;7.17;;;6.40;;
5742;SDS011;2896;53.500;10.020;2023-03-11T08:09:58;6.93;;;6.27;;
5742;SDS011;2896;53.500;10.020;2023-03-11T08:12:26;8.20;;;5.97;;
5742;SDS011;2896;53.500;10.020;2023-03-11T08:14:52;8.10;;;6.17;;
5742;SDS011;2896;53.500;10.020;2023-03-11T08:17:19;7.40;;;6.70;;
5742;SDS011;2896;53.500;10.020;2023-03-11T08:19:47;7.03;;;6.33;;
5742;SDS011;2896;53.500;10.020;2023-03-11T08:22:14;12.93;;;6.90;;
5742;SDS011;2896;53.500;10.020;2023-03-11T08:24:41;8.10;;;6.47;;
5742;SDS011;2896;53.500;10.020;2023-03-11T08:27:07;7.80;;;5.57;;
5742;SDS011;2896;53.500;10.020;2023-03-11T08:29:37;7.90;;;6.27;;
5742;SDS011;2896;53.500;10.020;2023-03-11T08:32:04;5.80;;;5.33;;
5742;SDS011;2896;53.500;10.020;2023-03-11T08:34:31;6.00;;;5.40;;
5742;SDS011;2896;53.500;10.020;2023-03-11T08:36:59;5.67;;;4.90;;
5742;SDS011;2896;53.500;10.020;2023-03-11T08:39:25;5.70;;;5.03;;
5742;SDS011;2896;53.500;10.020;2023-03-11T08:41:52;8.87;;;5.77;;
5742;SDS011;2896;53.500;10.020;2023-03-11T08:44:19;17.67;;;5.80;;
5742;SDS011;2896;53.500;10.020;2023-03-11T08:46:47;6.57;;;5.90;;
5742;SDS011;2896;53.500;10.020;2023-03-11T08:49:13;6.43;;;5.83;;
5742;SDS011;2896;53.500;10.020;2023-03-11T08:51:40;4.77;;;4.37;;
5742;SDS011;2896;53.500;10.020;2023-03-11T08:54:07;5.00;;;4.47;;
5742;SDS011;2896;53.500;10.020;2023-03-11T08:56:33;4.83;;;4.47;;
5742;SDS011;2896;53.500;10.020;2023-03-11T08:59:00;5.33;;;3.90;;
5742;SDS011;2896;53.500;10.020;2023-03-11T09:01:27;5.43;;;4.37;;
5742;SDS011;2896;53.500;10.020;2023-03-11T09:03:55;5.73;;;4.13;;
5742;SDS011;2896;53.500;10.020;2023-03-11T09:06:22;6.53;;;4.43;;
5742;SDS011;2896;53.500;10.020;2023-03-11T09:08:49;4.93;;;3.50;;
5742;SDS011;2896;53.500;10.020;2023-03-11T09:11:16;4.83;;;3.77;;
5742;SDS011;2896;53.500;10.020;2023-03-11T09:13:46;4.30;;;3.73;;
5742;SDS011;2896;53.500;10.020;2023-03-11T09:16:12;10.03;;;3.60;;
5742;SDS011;2896;53.500;10.020;2023-03-11T09:18:41;4.07;;;3.20;;
5742;SDS011;2896;53.500;10.020;2023-03-11T09:21:09;3.27;;;3.13;;
5742;SDS011;2896;53.500;10.020;2023-03-11T09:23:36;4.73;;;3.20;;
5742;SDS011;2896;53.500;10.020;2023-03-11T09:26:03;9.20;;;3.50;;
5742;SDS011;2896;53.500;10.020;2023-03-11T09:28:30;4.00;;;3.40;;
5742;SDS011;2896;53.500;10.020;2023-03-11T09:30:57;3.63;;;3.33;;
5742;SDS011;2896;53.500;10.020;2023-03-11T09:33:23;8.80;;;3.37;;
5742;SDS011;2896;53.500;10.020;2023-03-11T09:35:50;10.50;;;4.30;;
5742;SDS011;2896;53.500;10.020;2023-03-11T09:38:18;16.40;;;4.50;;
5742;SDS011;2896;53.500;10.020;2023-03-11T09:40:48;4.40;;;3.80;;
5742;SDS011;2896;53.500;10.020;2023-03-11T09:43:23;5.23;;;4.47;;
5742;SDS011;2896;53.500;10.020;2023-03-11T09:46:01;8.07;;;5.70;;
5742;SDS011;2896;53.500;10.020;2023-03-11T09:48:38;9.30;;;5.87;;
5742;SDS011;2896;53.500;10.020;2023-03-11T09:51:08;11.00;;;5.53;;
5742;SDS011;2896;53.500;10.020;2023-03-11T09:53:43;5.80;;;5.20;;
5742;SDS011;2896;53.500;10.020;2023-03-11T09:56:12;5.20;;;4.57;;
5742;SDS011;2896;53.500;10.020;2023-03-11T09:58:42;6.33;;;4.80;;
5742;SDS011;2896;53.500;10.020;2023-03-11T10:01:13;11.40;;;5.80;;
5742;SDS011;2896;53.500;10.020;2023-03-11T10:03:43;6.20;;;5.43;;
5742;SDS011;2896;53.500;10.020;2023-03-11T10:06:12;9.23;;;6.27;;
5742;SDS011;2896;53.500;10.020;2023-03-11T10:08:44;6.17;;;5.57;;
5742;SDS011;2896;53.500;10.020;2023-03-11T10:11:33;5.57;;;4.67;;
5742;SDS011;2896;53.500;10.020;2023-03-11T10:14:12;4.70;;;4.30;;
5742;SDS011;2896;53.500;10.020;2023-03-11T10:16:55;8.53;;;5.13;;
5742;SDS011;2896;53.500;10.020;2023-03-11T10:19:34;5.20;;;4.70;;
5742;SDS011;2896;53.500;10.020;2023-03-11T10:22:11;5.33;;;3.97;;
5742;SDS011;2896;53.500;10.020;2023-03-11T10:24:50;4.63;;;4.20;;
5742;SDS011;2896;53.500;10.020;2023-03-11T10:27:27;5.17;;;3.77;;
5742;SDS011;2896;53.500;10.020;2023-03-11T10:29:58;8.33;;;5.20;;
5742;SDS011;2896;53.500;10.020;2023-03-11T10:32:33;7.40;;;4.77;;
5742;SDS011;2896;53.500;10.020;2023-03-11T10:35:03;7.67;;;4.10;;
5742;SDS011;2896;53.500;10.020;2023-03-11T10:37:38;4.17;;;3.77;;
5742;SDS011;2896;53.500;10.020;2023-03-11T10:40:14;4.33;;;4.03;;
5742;SDS011;2896;53.500;10.020;2023-03-11T10:42:46;3.60;;;3.30;;
5742;SDS011;2896;53.500;10.020;2023-03-11T10:45:14;7.33;;;3.00;;
5742;SDS011;2896;53.500;10.020;2023-03-11T10:47:40;4.47;;;3.30;;
5742;SDS011;2896;53.500;10.020;2023-03-11T10:50:08;3.97;;;3.57;;
5742;SDS011;2896;53.500;10.020;2023-03-11T10:52:41;7.70;;;3.70;;
5742;SDS011;2896;53.500;10.020;2023-03-11T10:55:30;5.60;;;3.70;;
5742;SDS011;2896;53.500;10.020;2023-03-11T10:58:03;3.57;;;3.37;;
5742;SDS011;2896;53.500;10.020;2023-03-11T11:00:31;4.43;;;4.00;;
5742;SDS011;2896;53.500;10.020;2023-03-11T11:02:58;3.63;;;3.33;;
5742;SDS011;2896;53.500;10.020;2023-03-11T11:05:28;6.23;;;3.73;;
5742;SDS011;2896;53.500;10.020;2023-03-11T11:08:01;3.97;;;3.57;;
5742;SDS011;2896;53.500;10.020;2023-03-11T11:10:31;4.00;;;3.60;;
5742;SDS011;2896;53.500;10.020;2023-03-11T11:12:59;6.97;;;4.87;;
5742;SDS011;2896;53.500;10.020;2023-03-11T11:15:28;5.43;;;4.20;;
5742;SDS011;2896;53.500;10.020;2023-03-11T11:17:56;3.80;;;3.43;;
5742;SDS011;2896;53.500;10.020;2023-03-11T11:20:26;3.77;;;3.53;;
5742;SDS011;2896;53.500;10.020;2023-03-11T11:22:55;5.63;;;3.93;;
5742;SDS011;2896;53.500;10.020;2023-03-11T11:25:23;7.10;;;3.63;;
5742;SDS011;2896;53.500;10.020;2023-03-11T11:28:00;5.43;;;3.50;;
5742;SDS011;2896;53.500;10.020;2023-03-11T11:30:29;6.20;;;3.60;;
5742;SDS011;2896;53.500;10.020;2023-03-11T11:32:56;5.13;;;3.60;;
5742;SDS011;2896;53.500;10.020;2023-03-11T11:35:47;7.30;;;4.20;;
5742;SDS011;2896;53.500;10.020;2023-03-11T11:38:16;4.30;;;3.87;;
5742;SDS011;2896;53.500;10.020;2023-03-11T11:40:44;3.60;;;3.33;;
5742;SDS011;2896;53.500;10.020;2023-03-11T11:43:12;8.80;;;3.27;;
5742;SDS011;2896;53.500;10.020;2023-03-11T11:45:43;8.63;;;3.60;;
5742;SDS011;2896;53.500;10.020;2023-03-11T11:48:13;12.43;;;4.17;;
5742;SDS011;2896;53.500;10.020;2023-03-11T11:50:47;3.50;;;3.10;;
5742;SDS011;2896;53.500;10.020;2023-03-11T11:53:22;10.43;;;3.60;;
5742;SDS011;2896;53.500;10.020;2023-03-11T11:55:55;7.60;;;3.00;;
5742;SDS011;2896;53.500;10.020;2023-03-11T11:58:22;4.27;;;2.70;;
5742;SDS011;2896;53.500;10.020;2023-03-11T12:00:54;3.10;;;2.83;;
5742;SDS011;2896;53.500;10.020;2023-03-11T12:03:35;2.43;;;2.33;;
5742;SDS011;2896;53.500;10.020;2023-03-11T12:06:11;10.87;;;3.33;;
5742;SDS011;2896;53.500;10.020;2023-03-11T12:08:46;24.20;;;3.00;;
5742;SDS011;2896;53.500;10.020;2023-03-11T12:11:27;7.53;;;2.10;;
5742;SDS011;2896;53.500;10.020;2023-03-11T12:14:01;2.80;;;2.30;;
5742;SDS011;2896;53.500;10.020;2023-03-11T12:16:34;11.33;;;2.13;;
5742;SDS011;2896;53.500;10.020;2023-03-11T12:19:11;2.20;;;1.97;;
5742;SDS011;2896;53.500;10.020;2023-03-11T12:21:51;6.30;;;2.83;;
5742;SDS011;2896;53.500;10.020;2023-03-11T12:24:34;5.80;;;2.50;;
5742;SDS011;2896;53.500;10.020;2023-03-11T12:27:17;4.10;;;2.53;;
5742;SDS011;2896;53.500;10.020;2023-03-11T12:29:48;5.20;;;2.67;;
5742;SDS011;2896;53.500;10.020;2023-03-11T12:32:21;3.30;;;2.40;;
5742;SDS011;2896;53.500;10.020;2023-03-11T12:34:51;7.23;;;2.83;;
5742;SDS011;2896;53.500;10.020;2023-03-11T12:37:17;2.97;;;2.53;;
5742;SDS011;2896;53.500;10.020;2023-03-11T12:39:47;4.47;;;3.33;;
5742;SDS011;2896;53.500;10.020;2023-03-11T12:42:16;7.80;;;2.53;;
5742;SDS011;2896;53.500;10.020;2023-03-11T12:44:44;2.57;;;2.43;;
5742;SDS011;2896;53.500;10.020;2023-03-11T12:47:24;6.83;;;2.90;;
5742;SDS011;2896;53.500;10.020;2023-03-11T12:49:53;5.57;;;2.80;;
5742;SDS011;2896;53.500;10.020;2023-03-11T12:52:22;4.70;;;2.53;;
5742;SDS011;2896;53.500;10.020;2023-03-11T12:57:56;8.47;;;2.93;;
5742;SDS011;2896;53.500;10.020;2023-03-11T13:00:44;13.93;;;2.67;;
5742;SDS011;2896;53.500;10.020;2023-03-11T13:03:29;3.67;;;2.77;;
5742;SDS011;2896;53.500;10.020;2023-03-11T13:06:21;3.87;;;2.30;;
5742;SDS011;2896;53.500;10.020;2023-03-11T13:09:00;6.10;;;2.73;;
5742;SDS011;2896;53.500;10.020;2023-03-11T13:11:34;14.33;;;2.67;;
5742;SDS011;2896;53.500;10.020;2023-03-11T13:14:24;7.43;;;3.20;;
5742;SDS011;2896;53.500;10.020;2023-03-11T13:16:54;4.97;;;2.40;;
5742;SDS011;2896;53.500;10.020;2023-03-11T13:19:35;6.10;;;2.10;;
5742;SDS011;2896;53.500;10.020;2023-03-11T13:25:30;6.33;;;2.57;;
5742;SDS011;2896;53.500;10.020;2023-03-11T13:30:54;1.83;;;1.73;;
5742;SDS011;2896;53.500;10.020;2023-03-11T13:33:35;7.67;;;2.10;;
5742;SDS011;2896;53.500;10.020;2023-03-11T13:36:16;4.83;;;2.37;;
5742;SDS011;2896;53.500;10.020;2023-03-11T13:38:55;5.83;;;2.30;;
5742;SDS011;2896;53.500;10.020;2023-03-11T13:41:30;11.70;;;2.60;;
5742;SDS011;2896;53.500;10.020;2023-03-11T13:44:02;8.13;;;2.40;;
5742;SDS011;2896;53.500;10.020;2023-03-11T13:46:40;8.97;;;2.43;;
5742;SDS011;2896;53.500;10.020;2023-03-11T13:49:13;4.00;;;1.80;;
5742;SDS011;2896;53.500;10.020;2023-03-11T13:51:49;3.00;;;2.23;;
5742;SDS011;2896;53.500;10.020;2023-03-11T13:54:28;7.77;;;2.10;;
5742;SDS011;2896;53.500;10.020;2023-03-11T13:56:59;4.10;;;2.37;;
5742;SDS011;2896;53.500;10.020;2023-03-11T13:59:27;2.70;;;2.17;;
5742;SDS011;2896;53.500;10.020;2023-03-11T14:01:58;15.23;;;1.97;;
5742;SDS011;2896;53.500;10.020;2023-03-11T14:04:27;5.03;;;2.10;;
5742;SDS011;2896;53.500;10.020;2023-03-11T14:06:56;7.30;;;2.60;;
5742;SDS011;2896;53.500;10.020;2023-03-11T14:09:23;3.03;;;2.10;;
5742;SDS011;2896;53.500;10.020;2023-03-11T14:11:51;2.63;;;2.13;;
5742;SDS011;2896;53.500;10.020;2023-03-11T14:14:26;2.20;;;1.93;;
5742;SDS011;2896;53.500;10.020;2023-03-11T14:17:00;5.60;;;2.03;;
5742;SDS011;2896;53.500;10.020;2023-03-11T14:19:28;9.10;;;2.57;;
5742;SDS011;2896;53.500;10.020;2023-03-11T14:21:55;8.73;;;2.50;;
5742;SDS011;2896;53.500;10.020;2023-03-11T14:24:22;6.03;;;2.33;;
5742;SDS011;2896;53.500;10.020;2023-03-11T14:26:52;7.77;;;2.07;;
5742;SDS011;2896;53.500;10.020;2023-03-11T14:29:21;4.77;;;1.90;;
5742;SDS011;2896;53.500;10.020;2023-03-11T14:31:54;4.40;;;1.70;;
5742;SDS011;2896;53.500;10.020;2023-03-11T14:34:23;7.70;;;1.70;;
5742;SDS011;2896;53.500;10.020;2023-03-11T14:36:52;2.97;;;1.93;;
5742;SDS011;2896;53.500;10.020;2023-03-11T14:39:24;10.30;;;2.07;;
5742;SDS011;2896;53.500;10.020;2023-03-11T14:41:54;6.27;;;2.07;;
5742;SDS011;2896;53.500;10.020;2023-03-11T14:44:23;4.17;;;1.80;;
5742;SDS011;2896;53.500;10.020;2023-03-11T14:47:00;7.97;;;1.70;;
5742;SDS011;2896;53.500;10.020;2023-03-11T14:49:33;5.10;;;1.97;;
5742;SDS011;2896;53.500;10.020;2023-03-11T14:52:02;3.10;;;1.77;;
5742;SDS011;2896;53.500;10.020;2023-03-11T14:54:32;5.30;;;1.50;;
5742;SDS011;2896;53.500;10.020;2023-03-11T14:57:02;3.17;;;1.57;;
5742;SDS011;2896;53.500;10.020;2023-03-11T14:59:32;3.97;;;1.73;;
5742;SDS011;2896;53.500;10.020;2023-03-11T15:02:05;5.80;;;1.80;;
5742;SDS011;2896;53.500;10.020;2023-03-11T15:04:53;10.33;;;2.17;;
5742;SDS011;2896;53.500;10.020;2023-03-11T15:07:22;6.13;;;1.30;;
5742;SDS011;2896;53.500;10.020;2023-03-11T15:09:49;1.70;;;1.37;;